Time;durP1;ratioP1;P1;durP2;ratioP2;P2;SDS_P1;SDS_P2;PMS_P1;PMS_P2;Temp;Humidity;BMP_temperature;BMP_pressure;BME280_temperature;BME280_humidity;BME280_pressure;Samples;Min_cycle;Max_cycle;Signal;HPM_P1;HPM_P2
2022/09/02 00:01:22;;;;;;;4.63;1.52;;;14.40;99.90;;;;;;4992134;28;20088;-82
2022/09/02 00:03:49;;;;;;;3.65;1.52;;;14.40;99.90;;;;;;4990764;28;20121;-82
2022/09/02 00:06:16;;;;;;;6.57;1.40;;;14.30;99.90;;;;;;5003063;28;20042;-82
2022/09/02 00:08:42;;;;;;;5.63;1.58;;;14.30;99.90;;;;;;5001288;28;20356;-83
2022/09/02 00:11:18;;;;;;;4.97;1.50;;;14.30;99.90;;;;;;5005382;28;20077;-83
2022/09/02 00:13:44;;;;;;;4.25;1.63;;;14.20;99.90;;;;;;4991429;28;20129;-82
2022/09/02 00:16:11;;;;;;;5.72;1.67;;;14.20;99.90;;;;;;5002076;28;20054;-84
2022/09/02 00:18:38;;;;;;;4.50;1.30;;;14.10;99.90;;;;;;5004603;28;20125;-84
2022/09/02 00:21:03;;;;;;;5.25;1.70;;;14.10;99.90;;;;;;4999260;28;20525;-83
2022/09/02 00:23:29;;;;;;;4.68;1.50;;;14.10;99.90;;;;;;4992591;28;20054;-83
2022/09/02 00:25:55;;;;;;;5.10;1.70;;;14.10;99.90;;;;;;4998768;28;20044;-83
2022/09/02 00:28:20;;;;;;;2.92;1.33;;;14.00;99.90;;;;;;4993796;28;20161;-83
2022/09/02 00:30:46;;;;;;;3.72;1.55;;;14.00;99.90;;;;;;4999219;28;20048;-83
2022/09/02 00:33:13;;;;;;;3.80;1.50;;;14.00;99.90;;;;;;4993393;28;20373;-83
2022/09/02 00:35:39;;;;;;;3.45;1.45;;;14.00;99.90;;;;;;5005304;28;20125;-82
2022/09/02 00:38:05;;;;;;;3.30;1.52;;;13.90;99.90;;;;;;4997480;28;20050;-83
2022/09/02 00:40:31;;;;;;;3.40;1.35;;;13.90;99.90;;;;;;5003396;28;20101;-83
2022/09/02 00:42:57;;;;;;;4.05;1.55;;;13.90;99.90;;;;;;4998618;28;20065;-83
2022/09/02 00:45:23;;;;;;;3.17;1.40;;;13.90;99.90;;;;;;4995024;28;20132;-84
2022/09/02 00:47:50;;;;;;;4.60;1.55;;;13.90;99.90;;;;;;4993553;28;20044;-82
2022/09/02 00:50:20;;;;;;;4.32;1.60;;;13.80;99.90;;;;;;5002681;28;20054;-83
2022/09/02 00:52:52;;;;;;;4.35;1.70;;;13.80;99.90;;;;;;4992195;28;20042;-82
2022/09/02 00:55:24;;;;;;;4.05;1.60;;;13.80;99.90;;;;;;5005018;28;20405;-84
2022/09/02 00:57:59;;;;;;;4.22;1.60;;;13.80;99.90;;;;;;4989599;28;20049;-83
2022/09/02 01:00:28;;;;;;;4.10;1.50;;;13.80;99.90;;;;;;4990421;28;20559;-81
2022/09/02 01:02:56;;;;;;;5.05;1.70;;;13.80;99.90;;;;;;5003329;28;20060;-84
2022/09/02 01:05:24;;;;;;;4.05;1.60;;;13.70;99.90;;;;;;4996312;28;20038;-83
2022/09/02 01:07:53;;;;;;;4.13;1.85;;;13.80;99.90;;;;;;4999249;28;20042;-83
2022/09/02 01:10:24;;;;;;;2.63;1.40;;;13.80;99.90;;;;;;4975483;28;20129;-82
2022/09/02 01:12:58;;;;;;;4.15;1.48;;;13.70;99.90;;;;;;5003593;28;20048;-82
2022/09/02 01:15:25;;;;;;;4.38;1.65;;;13.70;99.90;;;;;;4973786;28;20112;-82
2022/09/02 01:17:52;;;;;;;4.45;1.50;;;13.60;99.90;;;;;;4997876;28;20069;-84
2022/09/02 01:20:22;;;;;;;4.60;1.70;;;13.70;99.90;;;;;;4987499;28;20126;-83
2022/09/02 01:22:48;;;;;;;4.23;1.63;;;13.60;99.90;;;;;;4996554;28;20078;-83
2022/09/02 01:25:18;;;;;;;4.85;1.98;;;13.60;99.90;;;;;;5005379;28;20046;-82
2022/09/02 01:27:46;;;;;;;3.28;1.50;;;13.60;99.90;;;;;;4989522;28;20098;-82
2022/09/02 01:30:16;;;;;;;3.80;1.70;;;13.50;99.90;;;;;;5014081;28;20038;-82
2022/09/02 01:32:42;;;;;;;3.58;1.50;;;13.50;99.90;;;;;;4994369;28;20042;-83
2022/09/02 01:35:08;;;;;;;3.90;1.58;;;13.50;99.90;;;;;;4988674;28;20107;-82
2022/09/02 01:37:34;;;;;;;3.35;1.50;;;13.50;99.90;;;;;;5000457;28;20119;-83
2022/09/02 01:40:00;;;;;;;4.38;1.50;;;13.50;99.90;;;;;;4989607;28;20046;-83
2022/09/02 01:42:25;;;;;;;5.05;1.55;;;13.40;99.90;;;;;;4971988;28;20046;-84
2022/09/02 01:44:51;;;;;;;3.50;1.50;;;13.40;99.90;;;;;;4992718;28;20064;-82
2022/09/02 01:47:21;;;;;;;4.55;1.60;;;13.50;99.90;;;;;;5002750;28;20034;-82
2022/09/02 01:49:47;;;;;;;2.67;1.52;;;13.40;99.90;;;;;;4989880;28;20129;-82
2022/09/02 01:52:14;;;;;;;4.40;1.70;;;13.40;99.90;;;;;;4994228;28;20093;-82
2022/09/02 01:54:40;;;;;;;3.75;1.80;;;13.30;99.90;;;;;;4990627;28;20104;-83
2022/09/02 01:57:05;;;;;;;4.63;1.60;;;13.30;99.90;;;;;;5004861;28;20045;-82
2022/09/02 01:59:31;;;;;;;3.17;1.58;;;13.30;99.90;;;;;;4995373;28;20053;-82
2022/09/02 02:01:57;;;;;;;4.40;1.80;;;13.30;99.90;;;;;;5007105;28;20046;-82
2022/09/02 02:04:23;;;;;;;3.60;1.30;;;13.30;99.90;;;;;;4981223;28;20042;-83
2022/09/02 02:06:50;;;;;;;4.32;1.67;;;13.30;99.90;;;;;;5000520;28;20049;-83
2022/09/02 02:09:17;;;;;;;4.72;1.80;;;13.20;99.90;;;;;;4990092;28;20077;-83
2022/09/02 02:11:44;;;;;;;3.33;1.70;;;13.20;99.90;;;;;;5002934;28;20064;-83
2022/09/02 02:14:10;;;;;;;3.80;1.83;;;13.20;99.90;;;;;;4995309;28;20042;-82
2022/09/02 02:16:36;;;;;;;4.25;1.55;;;13.20;99.90;;;;;;4991202;28;20084;-83
2022/09/02 02:19:03;;;;;;;3.58;1.80;;;13.20;99.90;;;;;;4991099;28;20057;-83
2022/09/02 02:21:29;;;;;;;4.35;1.80;;;13.10;99.90;;;;;;5000012;28;20065;-84
2022/09/02 02:23:56;;;;;;;3.25;1.55;;;13.10;99.90;;;;;;4989894;28;20510;-83
2022/09/02 02:26:22;;;;;;;4.90;1.80;;;13.10;99.90;;;;;;5002836;28;20053;-83
2022/09/02 02:28:48;;;;;;;2.95;1.45;;;13.10;99.90;;;;;;4990253;28;20038;-84
2022/09/02 02:31:13;;;;;;;3.97;1.83;;;13.10;99.90;;;;;;5004661;28;20072;-84
2022/09/02 02:33:39;;;;;;;3.72;1.60;;;13.00;99.90;;;;;;4992878;28;20072;-82
2022/09/02 02:36:06;;;;;;;3.10;1.73;;;13.00;99.90;;;;;;5004640;28;20042;-83
2022/09/02 02:38:34;;;;;;;4.07;1.77;;;13.00;99.90;;;;;;4992226;28;20042;-83
2022/09/02 02:41:03;;;;;;;5.25;2.00;;;12.90;99.90;;;;;;4991917;28;20085;-83
2022/09/02 02:43:29;;;;;;;3.53;1.80;;;12.90;99.90;;;;;;5001905;28;20499;-83
2022/09/02 02:45:54;;;;;;;5.65;1.70;;;12.90;99.90;;;;;;4989760;28;20084;-84
2022/09/02 02:48:21;;;;;;;4.63;1.75;;;12.90;99.90;;;;;;4971564;28;20050;-83
2022/09/02 02:50:46;;;;;;;4.40;1.90;;;12.90;99.90;;;;;;4988556;28;20547;-82
2022/09/02 02:53:12;;;;;;;3.55;1.60;;;12.90;99.90;;;;;;4989422;28;20121;-82
2022/09/02 02:55:39;;;;;;;5.70;1.92;;;12.90;99.90;;;;;;5001729;28;20057;-82
2022/09/02 02:58:05;;;;;;;5.13;1.80;;;12.80;99.90;;;;;;4993034;28;20626;-82
2022/09/02 03:00:32;;;;;;;5.03;2.00;;;12.80;99.90;;;;;;5002285;28;20061;-83
2022/09/02 03:03:02;;;;;;;4.53;1.65;;;12.80;99.90;;;;;;5004234;28;20578;-83
2022/09/02 03:05:28;;;;;;;5.38;2.10;;;12.80;99.90;;;;;;5002621;28;20045;-82
2022/09/02 03:07:54;;;;;;;3.70;1.80;;;12.80;99.90;;;;;;5002059;28;20042;-83
2022/09/02 03:10:21;;;;;;;3.60;1.98;;;12.80;99.90;;;;;;5004703;28;20126;-83
2022/09/02 03:12:46;;;;;;;4.95;2.15;;;12.80;99.90;;;;;;4998979;28;20136;-83
2022/09/02 03:15:15;;;;;;;5.75;1.95;;;12.70;99.90;;;;;;4995817;28;20076;-83
2022/09/02 03:17:42;;;;;;;3.83;1.85;;;12.70;99.90;;;;;;5011056;28;20046;-83
2022/09/02 03:20:08;;;;;;;5.80;1.90;;;12.70;99.90;;;;;;5002524;28;20532;-86
2022/09/02 03:22:37;;;;;;;3.53;1.65;;;12.70;99.90;;;;;;5024086;28;20105;-83
2022/09/02 03:25:04;;;;;;;4.07;1.70;;;12.70;99.90;;;;;;4994245;28;20491;-83
2022/09/02 03:27:30;;;;;;;4.25;2.05;;;12.70;99.90;;;;;;5009927;28;20038;-84
2022/09/02 03:29:55;;;;;;;3.85;1.83;;;12.60;99.90;;;;;;5009343;28;20034;-83
2022/09/02 03:32:21;;;;;;;4.38;1.92;;;12.60;99.90;;;;;;5010747;28;20080;-84
2022/09/02 03:34:47;;;;;;;4.07;1.90;;;12.60;99.90;;;;;;5007122;28;20398;-83
2022/09/02 03:37:13;;;;;;;4.57;1.80;;;12.60;99.90;;;;;;5003976;28;20033;-84
2022/09/02 03:39:39;;;;;;;3.80;1.63;;;12.50;99.90;;;;;;5008631;28;20042;-83
2022/09/02 03:42:06;;;;;;;5.50;2.00;;;12.50;99.90;;;;;;4991271;28;20046;-84
2022/09/02 03:44:33;;;;;;;5.30;1.90;;;12.50;99.90;;;;;;5010652;28;20397;-83
2022/09/02 03:46:58;;;;;;;4.35;2.08;;;12.50;99.90;;;;;;4992467;28;20399;-83
2022/09/02 03:49:26;;;;;;;5.57;2.20;;;12.50;99.90;;;;;;4991122;28;20065;-83
2022/09/02 03:51:51;;;;;;;3.88;1.92;;;12.50;99.90;;;;;;5002692;28;20106;-83
2022/09/02 03:54:17;;;;;;;5.40;2.10;;;12.40;99.90;;;;;;4992440;28;20467;-82
2022/09/02 03:56:43;;;;;;;4.18;1.98;;;12.40;99.90;;;;;;5007493;28;20049;-83
2022/09/02 03:59:08;;;;;;;4.22;1.90;;;12.30;99.90;;;;;;4978111;28;20415;-83
2022/09/02 04:01:34;;;;;;;4.65;2.10;;;12.40;99.90;;;;;;4999905;28;20125;-83
2022/09/02 04:04:00;;;;;;;4.72;2.08;;;12.40;99.90;;;;;;5004721;28;20073;-83
2022/09/02 04:06:26;;;;;;;4.65;2.20;;;12.40;99.90;;;;;;4990917;28;20065;-82
2022/09/02 04:08:52;;;;;;;4.32;1.95;;;12.30;99.90;;;;;;4995489;28;20042;-83
2022/09/02 04:11:19;;;;;;;4.75;2.20;;;12.40;99.90;;;;;;4976040;28;20130;-83
2022/09/02 04:13:47;;;;;;;4.97;2.13;;;12.30;99.90;;;;;;4990367;28;20101;-83
2022/09/02 04:16:16;;;;;;;4.32;2.13;;;12.30;99.90;;;;;;4974592;28;20713;-83
2022/09/02 04:18:42;;;;;;;4.72;2.30;;;12.30;99.90;;;;;;4992959;28;20085;-83
2022/09/02 04:21:08;;;;;;;5.70;2.00;;;12.30;99.90;;;;;;4988637;28;20034;-83
2022/09/02 04:23:34;;;;;;;5.35;2.38;;;12.30;99.90;;;;;;4998873;28;20080;-83
2022/09/02 04:26:12;;;;;;;4.53;2.20;;;12.20;99.90;;;;;;5001013;28;20053;-82
2022/09/02 04:28:38;;;;;;;4.97;2.15;;;12.20;99.90;;;;;;4997920;28;20169;-83
2022/09/02 04:31:09;;;;;;;5.07;1.98;;;12.20;99.90;;;;;;4995932;28;20549;-83
2022/09/02 04:33:35;;;;;;;6.35;2.20;;;12.20;99.90;;;;;;4994891;28;20564;-84
2022/09/02 04:36:10;;;;;;;4.90;2.05;;;12.20;99.90;;;;;;4973771;28;20138;-85
2022/09/02 04:38:36;;;;;;;4.35;2.00;;;12.20;99.90;;;;;;5004616;28;20124;-83
2022/09/02 04:41:13;;;;;;;5.28;2.30;;;12.20;99.90;;;;;;4994429;28;20133;-83
2022/09/02 04:43:39;;;;;;;5.68;2.40;;;12.20;99.90;;;;;;5004859;28;20046;-83
2022/09/02 04:46:07;;;;;;;4.07;2.20;;;12.20;99.90;;;;;;4987530;28;20042;-84
2022/09/02 04:48:35;;;;;;;6.80;2.40;;;12.20;99.90;;;;;;5007798;28;20057;-83
2022/09/02 04:51:12;;;;;;;6.03;2.30;;;12.20;99.90;;;;;;4994772;28;20411;-83
2022/09/02 04:53:39;;;;;;;5.28;2.10;;;12.20;99.90;;;;;;4993401;28;20046;-84
2022/09/02 04:56:07;;;;;;;5.78;2.22;;;12.20;99.90;;;;;;4989686;28;20453;-84
2022/09/02 04:58:35;;;;;;;6.55;2.60;;;12.20;99.90;;;;;;4990042;28;20047;-83
2022/09/02 05:01:08;;;;;;;5.65;2.40;;;12.20;99.90;;;;;;4996989;28;20061;-83
2022/09/02 05:03:34;;;;;;;4.68;2.35;;;12.30;99.90;;;;;;5003077;28;20121;-83
2022/09/02 05:06:03;;;;;;;5.20;2.35;;;12.30;99.90;;;;;;4993329;28;20049;-83
2022/09/02 05:08:29;;;;;;;5.32;2.28;;;12.30;99.90;;;;;;5000094;28;20053;-84
2022/09/02 05:10:54;;;;;;;5.80;2.25;;;12.30;99.90;;;;;;4996161;28;20423;-83
2022/09/02 05:13:21;;;;;;;5.22;2.22;;;12.40;99.90;;;;;;5006951;28;20042;-82
2022/09/02 05:15:47;;;;;;;7.18;2.40;;;12.40;99.90;;;;;;5001617;28;20043;-82
2022/09/02 05:18:12;;;;;;;5.90;2.28;;;12.40;99.90;;;;;;4988825;28;20042;-82
2022/09/02 05:20:39;;;;;;;5.63;2.33;;;12.40;99.90;;;;;;4991102;28;20043;-81
2022/09/02 05:23:05;;;;;;;4.75;2.22;;;12.40;99.90;;;;;;4990915;28;20058;-82
2022/09/02 05:25:31;;;;;;;5.57;2.20;;;12.50;99.90;;;;;;4976404;28;20048;-80
2022/09/02 05:27:57;;;;;;;5.28;2.40;;;12.50;99.90;;;;;;5007398;28;20382;-82
2022/09/02 05:30:22;;;;;;;6.07;2.20;;;12.60;99.90;;;;;;5003273;28;20049;-81
2022/09/02 05:32:48;;;;;;;5.32;2.05;;;12.70;99.90;;;;;;4988733;28;20086;-81
2022/09/02 05:35:14;;;;;;;6.00;2.40;;;12.70;99.90;;;;;;4994921;28;20041;-81
2022/09/02 05:37:40;;;;;;;5.63;2.20;;;12.80;99.90;;;;;;4996682;28;20050;-82
2022/09/02 05:40:06;;;;;;;4.63;2.40;;;12.90;99.90;;;;;;4988887;28;20051;-82
2022/09/02 05:42:32;;;;;;;5.25;2.63;;;13.00;99.90;;;;;;4997369;28;20037;-81
2022/09/02 05:44:58;;;;;;;6.22;2.30;;;13.00;99.90;;;;;;5008208;28;20100;-81
2022/09/02 05:47:24;;;;;;;4.85;1.92;;;13.10;99.90;;;;;;5007070;28;20045;-82
2022/09/02 05:49:50;;;;;;;7.15;2.45;;;13.10;99.90;;;;;;4990420;28;20082;-82
2022/09/02 05:52:16;;;;;;;5.45;2.20;;;13.20;99.90;;;;;;4991684;28;20074;-83
2022/09/02 05:54:42;;;;;;;5.93;2.20;;;13.30;99.90;;;;;;4993708;28;20371;-81
2022/09/02 05:57:12;;;;;;;5.47;2.22;;;13.30;99.90;;;;;;5009321;28;20037;-81
2022/09/02 05:59:41;;;;;;;6.15;2.33;;;13.40;99.90;;;;;;5001599;28;20102;-81
2022/09/02 06:02:11;;;;;;;5.10;2.20;;;13.50;99.90;;;;;;4988861;28;20045;-82
2022/09/02 06:04:43;;;;;;;5.33;2.20;;;13.60;99.90;;;;;;4990349;28;20054;-82
2022/09/02 06:07:09;;;;;;;7.97;2.33;;;13.70;99.90;;;;;;4998594;28;20346;-84
2022/09/02 06:09:35;;;;;;;5.53;2.40;;;13.70;99.90;;;;;;4999438;28;20462;-81
2022/09/02 06:12:01;;;;;;;5.90;2.03;;;13.80;99.90;;;;;;4987988;28;20048;-82
2022/09/02 06:14:26;;;;;;;4.95;2.15;;;13.90;99.90;;;;;;4990203;28;20065;-82
2022/09/02 06:16:53;;;;;;;4.68;2.20;;;14.00;99.90;;;;;;4988488;28;20503;-82
2022/09/02 06:19:21;;;;;;;6.50;2.33;;;14.10;99.90;;;;;;4992391;28;20395;-83
2022/09/02 06:21:47;;;;;;;4.85;2.30;;;14.10;99.90;;;;;;4992100;28;20042;-83
2022/09/02 06:24:13;;;;;;;4.53;2.05;;;14.20;99.90;;;;;;4998556;28;20039;-84
2022/09/02 06:26:40;;;;;;;5.68;2.17;;;14.30;99.90;;;;;;4988908;28;20047;-85
2022/09/02 06:29:07;;;;;;;3.75;1.83;;;14.30;99.90;;;;;;4989001;28;20054;-86
2022/09/02 06:31:33;;;;;;;6.53;2.33;;;14.50;99.90;;;;;;4989342;28;20050;-84
2022/09/02 06:33:59;;;;;;;5.28;2.20;;;14.60;99.90;;;;;;4997028;28;20046;-87
2022/09/02 06:36:27;;;;;;;5.95;2.10;;;14.60;99.90;;;;;;5000100;28;20092;-85
2022/09/02 06:38:55;;;;;;;4.38;2.17;;;14.80;99.90;;;;;;5006879;28;20054;-85
2022/09/02 06:41:25;;;;;;;5.40;2.20;;;14.90;99.90;;;;;;5009179;28;20038;-87
2022/09/02 06:43:51;;;;;;;5.43;2.25;;;15.00;99.90;;;;;;5009535;28;20046;-84
2022/09/02 06:46:26;;;;;;;4.78;2.40;;;15.00;99.90;;;;;;4999748;28;20081;-85
2022/09/02 06:48:52;;;;;;;3.78;2.20;;;15.10;99.90;;;;;;4993931;28;20440;-85
2022/09/02 06:51:33;;;;;;;4.13;2.13;;;15.20;99.90;;;;;;4995188;28;20077;-85
2022/09/02 06:53:59;;;;;;;5.53;2.20;;;15.30;99.90;;;;;;4992492;28;20138;-86
2022/09/02 06:56:25;;;;;;;4.95;2.33;;;15.40;99.90;;;;;;4993539;28;20101;-86
2022/09/02 06:58:52;;;;;;;4.10;2.35;;;15.40;99.90;;;;;;4999944;28;20038;-85
2022/09/02 07:01:23;;;;;;;6.43;2.35;;;15.60;99.90;;;;;;4992928;28;20062;-90
2022/09/02 07:06:37;;;;;;;6.63;2.53;;;15.70;99.90;;;;;;5001984;28;20045;-86
2022/09/02 07:09:08;;;;;;;5.57;2.30;;;15.80;99.90;;;;;;5010906;28;20049;-91
2022/09/02 07:11:34;;;;;;;5.18;2.05;;;15.90;99.90;;;;;;5011089;28;20461;-92
2022/09/02 07:14:00;;;;;;;5.55;2.30;;;16.00;99.90;;;;;;4994694;28;20038;-86
2022/09/02 07:16:33;;;;;;;5.70;2.10;;;16.10;99.90;;;;;;4996507;28;20409;-87
2022/09/02 07:19:00;;;;;;;5.40;2.30;;;16.10;99.90;;;;;;4986977;28;20073;-87
2022/09/02 07:21:30;;;;;;;4.95;2.15;;;16.20;99.90;;;;;;4996565;28;20395;-87
2022/09/02 07:23:58;;;;;;;5.93;2.40;;;16.30;99.90;;;;;;4993270;28;20427;-87
2022/09/02 07:26:25;;;;;;;4.68;2.00;;;16.40;99.90;;;;;;5010978;28;20092;-87
2022/09/02 07:28:51;;;;;;;4.68;1.90;;;16.50;99.90;;;;;;4997607;28;20033;-87
2022/09/02 07:31:17;;;;;;;5.55;2.00;;;16.60;99.90;;;;;;4997866;28;20088;-87
2022/09/02 07:33:46;;;;;;;5.15;2.03;;;16.60;99.90;;;;;;5000418;28;20395;-89
2022/09/02 07:36:13;;;;;;;5.22;2.33;;;16.60;99.90;;;;;;5011023;28;20050;-90
2022/09/02 07:38:39;;;;;;;4.80;1.92;;;16.80;99.90;;;;;;5004523;28;20038;-86
2022/09/02 07:41:06;;;;;;;5.35;2.00;;;16.80;99.90;;;;;;4991107;28;20052;-87
2022/09/02 07:43:33;;;;;;;5.38;1.95;;;16.90;99.90;;;;;;5003759;28;20042;-93
2022/09/02 07:46:00;;;;;;;3.72;1.85;;;17.00;99.90;;;;;;5009079;28;20045;-93
2022/09/02 07:48:27;;;;;;;3.92;1.90;;;17.10;99.90;;;;;;5009616;28;20398;-93
2022/09/02 07:50:53;;;;;;;4.38;2.10;;;17.10;99.90;;;;;;5009653;28;20046;-89
2022/09/02 07:53:19;;;;;;;4.60;1.90;;;17.20;99.90;;;;;;4996465;28;20042;-87
2022/09/02 07:55:46;;;;;;;5.80;2.08;;;17.30;99.90;;;;;;4991565;28;20510;-90
2022/09/02 07:58:12;;;;;;;4.43;1.98;;;17.40;99.90;;;;;;4990112;28;20035;-89
2022/09/02 08:00:38;;;;;;;5.93;2.00;;;17.50;99.90;;;;;;5010669;28;20058;-95
2022/09/02 08:03:04;;;;;;;3.92;1.83;;;17.50;99.90;;;;;;4977215;28;20649;-92
2022/09/02 08:05:31;;;;;;;4.53;1.77;;;17.60;99.90;;;;;;4993788;28;20050;-94
2022/09/02 08:07:59;;;;;;;5.07;1.90;;;17.70;99.90;;;;;;4979877;28;20056;-91
2022/09/02 08:10:28;;;;;;;4.47;2.00;;;17.80;99.90;;;;;;4992214;28;20046;-94
2022/09/02 08:12:54;;;;;;;6.95;2.10;;;17.80;99.90;;;;;;4994957;28;20104;-90
2022/09/02 08:15:21;;;;;;;6.43;2.10;;;17.90;99.90;;;;;;5002951;28;20149;-86
2022/09/02 08:17:48;;;;;;;7.20;2.10;;;18.00;99.90;;;;;;4994549;28;20046;-90
2022/09/02 08:20:16;;;;;;;6.22;2.10;;;18.10;99.90;;;;;;4998198;28;20038;-91
2022/09/02 08:22:42;;;;;;;6.00;1.60;;;18.20;99.90;;;;;;5004961;28;20101;-89
2022/09/02 08:25:09;;;;;;;6.68;2.17;;;18.20;99.90;;;;;;5013226;28;20045;-92
2022/09/02 08:27:35;;;;;;;5.10;1.90;;;18.30;99.90;;;;;;5006138;28;20046;-91
2022/09/02 08:30:02;;;;;;;6.45;1.95;;;18.30;99.90;;;;;;4991616;28;20133;-87
2022/09/02 08:32:29;;;;;;;5.13;2.03;;;18.40;99.90;;;;;;5001049;28;20058;-94
2022/09/02 08:34:55;;;;;;;7.82;1.90;;;18.50;99.90;;;;;;5006746;28;20046;-94
2022/09/02 08:37:21;;;;;;;4.72;1.83;;;18.60;99.90;;;;;;5007495;28;20399;-94
2022/09/02 08:39:47;;;;;;;6.60;1.80;;;18.70;99.90;;;;;;4994314;28;20511;-93
2022/09/02 08:42:37;;;;;;;5.40;1.80;;;18.80;99.90;;;;;;4992715;28;20043;-89
2022/09/02 08:45:27;;;;;;;4.95;1.90;;;18.90;99.90;;;;;;4992302;28;20500;-93
2022/09/02 08:48:25;;;;;;;4.57;1.85;;;18.90;99.90;;;;;;4990764;28;20053;-89
2022/09/02 08:50:57;;;;;;;6.47;1.88;;;19.00;99.90;;;;;;5007082;28;20050;-90
2022/09/02 08:53:35;;;;;;;5.65;2.03;;;19.10;99.90;;;;;;4991657;28;20128;-90
2022/09/02 08:56:04;;;;;;;5.47;1.85;;;19.20;99.90;;;;;;4991612;28;20046;-92
2022/09/02 08:58:38;;;;;;;6.38;2.20;;;19.30;99.90;;;;;;4974378;28;20496;-90
2022/09/02 09:01:32;;;;;;;5.97;1.52;;;19.30;99.90;;;;;;4991333;28;20518;-94
2022/09/02 09:04:05;;;;;;;4.13;1.65;;;19.40;99.90;;;;;;5000354;28;20057;-91
2022/09/02 09:06:59;;;;;;;5.22;1.75;;;19.40;99.90;;;;;;5008848;28;20042;-94
2022/09/02 09:09:45;;;;;;;5.80;1.60;;;19.50;99.90;;;;;;4993231;28;20057;-95
2022/09/02 09:12:36;;;;;;;2.97;1.42;;;19.60;99.90;;;;;;4977639;28;20046;-90
2022/09/02 09:15:29;;;;;;;2.63;1.35;;;19.60;99.90;;;;;;5000286;28;20687;-93
2022/09/02 09:17:58;;;;;;;5.07;1.48;;;19.70;99.90;;;;;;5011049;28;20038;-88
2022/09/02 09:20:30;;;;;;;5.00;1.60;;;19.80;99.90;;;;;;5011499;28;20042;-89
2022/09/02 09:22:59;;;;;;;3.20;1.50;;;19.90;99.90;;;;;;4991511;28;20483;-91
2022/09/02 09:25:29;;;;;;;5.18;1.70;;;19.90;99.90;;;;;;4992306;28;20061;-91
2022/09/02 09:27:56;;;;;;;5.30;1.70;;;20.00;99.90;;;;;;4992279;28;20070;-91
2022/09/02 09:30:22;;;;;;;5.82;1.60;;;20.10;99.90;;;;;;4992408;28;20046;-93
2022/09/02 09:33:00;;;;;;;3.40;1.60;;;20.10;99.90;;;;;;4995346;28;20384;-91
2022/09/02 09:35:27;;;;;;;4.65;1.60;;;20.10;99.90;;;;;;5011932;28;20094;-92
2022/09/02 09:37:54;;;;;;;3.95;1.70;;;20.20;99.90;;;;;;5001418;28;20033;-93
2022/09/02 09:40:24;;;;;;;5.25;1.50;;;20.30;99.90;;;;;;5018195;28;20067;-93
2022/09/02 09:43:04;;;;;;;4.20;1.60;;;20.40;99.90;;;;;;5004349;28;20518;-90
2022/09/02 09:45:42;;;;;;;4.95;1.50;;;20.50;99.90;;;;;;4998787;28;20069;-95
2022/09/02 09:48:28;;;;;;;4.05;1.48;;;20.50;99.90;;;;;;4995715;28;20475;-94
2022/09/02 09:50:56;;;;;;;5.30;1.48;;;20.60;99.90;;;;;;4992936;28;20042;-92
2022/09/02 09:53:25;;;;;;;6.53;1.40;;;20.70;99.90;;;;;;4999748;28;20062;-93
2022/09/02 09:56:05;;;;;;;3.35;1.20;;;20.80;99.90;;;;;;4999170;28;20050;-91
2022/09/02 09:58:40;;;;;;;3.83;1.38;;;20.90;99.20;;;;;;5024960;28;20045;-90
2022/09/02 10:01:14;;;;;;;5.10;1.30;;;20.90;99.00;;;;;;4987963;28;20061;-92
2022/09/02 10:03:46;;;;;;;3.83;1.38;;;21.00;99.30;;;;;;4987118;28;20050;-86
2022/09/02 10:06:37;;;;;;;4.25;1.17;;;20.90;98.70;;;;;;5018903;28;20126;-94
2022/09/02 10:09:34;;;;;;;5.38;1.33;;;21.00;98.30;;;;;;4997626;28;20062;-96
2022/09/02 10:12:01;;;;;;;5.60;1.38;;;21.10;99.20;;;;;;4994682;28;20170;-90
2022/09/02 10:14:40;;;;;;;3.55;1.10;;;21.20;98.20;;;;;;4995166;28;20112;-92
2022/09/02 10:17:26;;;;;;;3.10;1.20;;;21.20;97.70;;;;;;4994961;28;20440;-93
2022/09/02 10:19:59;;;;;;;4.47;1.33;;;21.20;95.50;;;;;;5012026;28;20046;-93
2022/09/02 10:23:02;;;;;;;2.75;1.30;;;21.30;97.30;;;;;;5002840;28;20046;-90
2022/09/02 10:25:33;;;;;;;9.55;1.50;;;21.30;96.70;;;;;;5008497;28;20046;-93
2022/09/02 10:28:19;;;;;;;3.53;1.20;;;21.40;95.80;;;;;;4993580;28;20058;-92
2022/09/02 10:30:54;;;;;;;4.45;1.48;;;21.50;93.10;;;;;;5004312;28;20042;-91
2022/09/02 10:33:46;;;;;;;4.05;1.20;;;21.50;94.80;;;;;;5011124;28;20072;-90
2022/09/02 10:36:44;;;;;;;3.15;1.10;;;21.60;92.80;;;;;;5009910;28;20037;-89
2022/09/02 10:39:23;;;;;;;3.33;1.23;;;21.60;91.40;;;;;;5000323;28;20050;-93
2022/09/02 10:41:55;;;;;;;3.35;1.13;;;21.60;93.00;;;;;;4994729;28;20124;-94
2022/09/02 10:44:30;;;;;;;3.13;1.13;;;21.60;93.20;;;;;;4993900;28;20057;-92
2022/09/02 10:47:19;;;;;;;3.10;1.13;;;21.60;92.10;;;;;;5002171;28;20121;-95
2022/09/02 10:50:10;;;;;;;4.25;1.30;;;21.60;92.50;;;;;;5005538;28;20121;-94
2022/09/02 10:52:41;;;;;;;3.90;1.38;;;21.60;92.30;;;;;;5000489;28;20640;-91
2022/09/02 10:55:24;;;;;;;3.72;1.23;;;21.60;91.70;;;;;;4996230;28;20043;-94
2022/09/02 10:57:53;;;;;;;5.82;1.30;;;21.70;91.70;;;;;;4991708;28;20042;-91
2022/09/02 11:00:20;;;;;;;2.53;1.10;;;21.80;92.00;;;;;;4993858;28;20101;-90
2022/09/02 11:03:19;;;;;;;7.82;1.20;;;21.90;91.80;;;;;;5131085;27;20456;-91
2022/09/02 11:05:51;;;;;;;6.30;1.40;;;22.00;90.30;;;;;;5121119;28;20040;-93
2022/09/02 11:08:38;;;;;;;3.15;1.10;;;22.00;88.80;;;;;;5129898;27;20400;-96
2022/09/02 11:11:35;;;;;;;4.30;1.02;;;22.00;89.00;;;;;;5128442;28;20058;-90
2022/09/02 11:14:25;;;;;;;3.45;1.10;;;22.10;88.40;;;;;;5129602;27;20403;-91
2022/09/02 11:17:01;;;;;;;2.40;1.08;;;22.10;88.50;;;;;;5133062;28;20050;-93
2022/09/02 11:19:53;;;;;;;2.17;1.00;;;22.10;87.50;;;;;;5111310;28;20039;-93
2022/09/02 11:22:48;;;;;;;3.15;1.10;;;22.20;87.10;;;;;;5126651;27;20089;-91
2022/09/02 11:25:20;;;;;;;3.45;1.20;;;22.20;87.10;;;;;;5123234;28;20031;-93
2022/09/02 11:27:55;;;;;;;3.08;1.20;;;22.30;86.70;;;;;;5125994;28;20076;-95
2022/09/02 11:30:24;;;;;;;2.20;0.98;;;22.30;86.40;;;;;;5132665;28;20043;-94
2022/09/02 11:33:16;;;;;;;2.65;1.10;;;22.30;85.90;;;;;;5130838;27;20116;-93
2022/09/02 11:35:43;;;;;;;16.45;2.08;;;22.30;85.70;;;;;;5131240;28;20051;-95
2022/09/02 11:38:17;;;;;;;4.57;1.30;;;22.40;87.20;;;;;;5130177;28;20043;-95
2022/09/02 11:41:13;;;;;;;3.53;1.20;;;22.30;85.60;;;;;;5131158;28;20044;-95
2022/09/02 11:43:47;;;;;;;4.03;1.20;;;22.30;85.10;;;;;;5112740;28;20101;-96
2022/09/02 11:46:45;;;;;;;2.67;1.20;;;22.30;86.00;;;;;;5095185;28;20040;-95
2022/09/02 11:49:28;;;;;;;4.35;1.20;;;22.40;85.20;;;;;;5108524;28;20040;-94
2022/09/02 11:52:15;;;;;;;4.80;1.27;;;22.40;87.30;;;;;;5109714;28;20043;-92
2022/09/02 11:54:45;;;;;;;5.03;1.55;;;22.40;85.70;;;;;;5108725;28;20086;-92
2022/09/02 11:57:19;;;;;;;2.97;1.33;;;22.50;85.50;;;;;;5122085;28;20442;-95
2022/09/02 11:59:50;;;;;;;3.53;1.10;;;22.50;84.90;;;;;;5108814;28;20043;-94
2022/09/02 12:02:49;;;;;;;4.65;1.27;;;22.60;84.60;;;;;;5110288;28;20055;-92
2022/09/02 12:05:29;;;;;;;2.88;1.13;;;22.60;80.90;;;;;;5120493;27;20043;-94
2022/09/02 12:08:27;;;;;;;4.13;1.27;;;22.60;84.40;;;;;;5125140;28;20062;-93
2022/09/02 12:10:52;;;;;;;3.33;1.40;;;22.60;82.60;;;;;;5089643;28;20142;-91
2022/09/02 12:13:39;;;;;;;4.47;1.30;;;22.60;85.10;;;;;;5092389;28;20074;-95
2022/09/02 12:16:11;;;;;;;3.20;1.30;;;22.70;84.60;;;;;;5113450;28;20059;-92
2022/09/02 12:18:41;;;;;;;4.70;1.30;;;22.70;84.60;;;;;;5116276;28;20122;-92
2022/09/02 12:21:10;;;;;;;5.20;1.33;;;22.80;83.50;;;;;;5115371;28;20039;-95
2022/09/02 12:23:51;;;;;;;3.40;1.20;;;22.70;82.30;;;;;;5115757;28;20043;-95
2022/09/02 12:26:24;;;;;;;6.97;1.60;;;22.80;81.30;;;;;;5116243;28;20096;-95
2022/09/02 12:28:52;;;;;;;2.78;1.40;;;22.90;81.60;;;;;;5113025;28;20044;-95
2022/09/02 12:31:41;;;;;;;5.28;1.50;;;22.90;81.70;;;;;;5115001;28;20040;-95
2022/09/02 12:34:19;;;;;;;4.88;1.52;;;22.90;83.90;;;;;;5113101;28;20055;-96
2022/09/02 12:36:45;;;;;;;3.53;1.42;;;23.00;82.50;;;;;;5111308;28;20134;-94
2022/09/02 12:39:26;;;;;;;3.97;1.42;;;23.00;83.90;;;;;;5113558;28;20492;-96
2022/09/02 12:41:54;;;;;;;;;;;23.00;82.30;;;;;;5114675;28;20238;-90
2022/09/02 12:44:34;;;;;;;2.40;1.30;;;23.00;78.30;;;;;;5112045;28;20075;-95
2022/09/02 12:47:08;;;;;;;5.22;1.55;;;23.00;80.90;;;;;;5100906;28;20100;-94
2022/09/02 12:49:47;;;;;;;3.67;1.67;;;23.00;80.70;;;;;;5114085;28;20088;-92
2022/09/02 12:52:34;;;;;;;5.15;1.33;;;23.00;78.80;;;;;;5112357;28;20047;-93
2022/09/02 12:55:23;;;;;;;3.80;1.35;;;23.10;76.40;;;;;;5114096;28;20035;-95
2022/09/02 12:57:52;;;;;;;3.90;1.33;;;23.10;77.40;;;;;;5080440;28;20040;-96
2022/09/02 13:00:53;;;;;;;3.28;1.40;;;23.10;77.10;;;;;;5114872;28;20457;-94
2022/09/02 13:03:28;;;;;;;4.32;1.50;;;23.20;79.80;;;;;;5113854;28;20056;-96
2022/09/02 13:06:20;;;;;;;4.53;1.60;;;23.20;78.60;;;;;;5095306;28;20040;-94
2022/09/02 13:09:29;;;;;;;3.85;1.60;;;23.10;78.40;;;;;;5102006;28;20625;-93
2022/09/02 13:12:07;;;;;;;3.65;1.60;;;23.10;79.80;;;;;;5093177;28;20118;-94